createdAt,value
2018-03-06T00:01:00.896Z,0.60
2018-03-06T00:03:28.346Z,0.68
2018-03-06T00:05:55.916Z,0.63
2018-03-06T00:08:23.411Z,0.50
2018-03-06T00:10:50.827Z,0.28
2018-03-06T00:13:18.333Z,0.15
2018-03-06T00:15:45.786Z,0.21
2018-03-06T00:18:13.245Z,0.24
2018-03-06T00:20:41.059Z,0.45
2018-03-06T00:23:08.516Z,0.28
2018-03-06T00:25:36.027Z,-0.02
2018-03-06T00:28:03.772Z,0.18
2018-03-06T00:30:31.226Z,0.01
2018-03-06T00:32:58.727Z,0.21
2018-03-06T00:35:26.220Z,-0.14
2018-03-06T00:37:53.677Z,-0.07
2018-03-06T00:40:21.133Z,-0.09
2018-03-06T00:42:48.613Z,-0.23
2018-03-06T00:45:16.065Z,-0.09
2018-03-06T00:47:43.560Z,-0.16
2018-03-06T00:50:11.042Z,-0.06
2018-03-06T00:52:38.522Z,-0.04
2018-03-06T00:55:06.140Z,0.15
2018-03-06T00:57:33.601Z,0.17
2018-03-06T01:00:01.061Z,0.15
2018-03-06T01:02:28.533Z,0.33
2018-03-06T01:04:55.989Z,0.34
2018-03-06T01:07:23.509Z,0.28
2018-03-06T01:09:50.967Z,0.24
2018-03-06T01:12:18.441Z,0.08
2018-03-06T01:14:45.922Z,-0.01
2018-03-06T01:17:13.377Z,-0.25
2018-03-06T01:19:40.884Z,-0.25
2018-03-06T01:22:08.353Z,-0.12
2018-03-06T01:24:35.818Z,-0.11
2018-03-06T01:27:03.301Z,0.00
2018-03-06T01:29:30.765Z,0.29
2018-03-06T01:31:58.261Z,-0.12
2018-03-06T01:34:25.742Z,-0.17
2018-03-06T01:36:53.205Z,-0.15
2018-03-06T01:39:20.693Z,-0.35
2018-03-06T01:41:48.162Z,-0.22
2018-03-06T01:44:15.793Z,-0.17
2018-03-06T01:46:43.284Z,-0.14
2018-03-06T01:49:10.752Z,0.14
2018-03-06T01:51:50.148Z,0.20
2018-03-06T01:54:17.623Z,0.32
2018-03-06T01:56:45.097Z,0.47
2018-03-06T01:59:12.549Z,0.42
2018-03-06T02:01:40.033Z,0.32
2018-03-06T02:04:07.498Z,0.57
2018-03-06T02:06:34.984Z,0.84
2018-03-06T02:09:02.497Z,0.95
2018-03-06T02:11:29.990Z,0.90
2018-03-06T02:13:57.542Z,1.43
2018-03-06T02:16:25.020Z,0.96
2018-03-06T02:18:52.553Z,1.05
2018-03-06T02:21:20.005Z,0.59
2018-03-06T02:23:47.477Z,0.43
2018-03-06T02:26:14.964Z,0.24
2018-03-06T02:28:42.422Z,0.20
2018-03-06T02:31:10.153Z,-0.01
2018-03-06T02:33:37.623Z,-0.13
2018-03-06T02:36:05.073Z,-0.15
2018-03-06T02:38:32.589Z,-0.22
2018-03-06T02:41:00.041Z,-0.29
2018-03-06T02:43:27.547Z,-0.21
2018-03-06T02:46:06.844Z,-0.17
2018-03-06T02:48:34.357Z,-0.26
2018-03-06T02:51:01.817Z,-0.18
2018-03-06T02:53:29.293Z,-0.34
2018-03-06T02:55:59.162Z,0.01
2018-03-06T02:58:26.622Z,0.03
2018-03-06T03:00:54.129Z,-0.29
2018-03-06T03:03:21.613Z,-0.49
2018-03-06T03:05:49.081Z,-0.48
2018-03-06T03:08:16.565Z,-0.69
2018-03-06T03:10:44.044Z,-0.87
2018-03-06T03:13:11.674Z,-0.73
2018-03-06T03:15:39.141Z,-0.71
2018-03-06T03:18:06.621Z,-0.93
2018-03-06T03:20:34.102Z,-0.77
2018-03-06T03:23:01.571Z,-0.72
2018-03-06T03:25:29.399Z,-0.66
2018-03-06T03:27:56.877Z,-0.64
2018-03-06T03:30:24.620Z,-0.92
2018-03-06T03:32:52.113Z,-0.75
2018-03-06T03:35:19.596Z,-0.73
2018-03-06T03:37:47.089Z,-0.97
2018-03-06T03:40:14.549Z,-1.01
2018-03-06T03:42:42.013Z,-0.86
2018-03-06T03:45:09.508Z,-1.18
2018-03-06T03:47:36.970Z,-1.33
2018-03-06T03:50:04.640Z,-1.20
2018-03-06T03:52:32.113Z,-1.09
2018-03-06T03:54:59.581Z,-1.15
2018-03-06T03:57:27.077Z,-0.99
2018-03-06T03:59:54.548Z,-1.09
2018-03-06T04:02:22.038Z,-1.14
2018-03-06T04:04:49.501Z,-1.04
2018-03-06T04:07:16.969Z,-1.15
2018-03-06T04:09:44.453Z,-1.21
2018-03-06T04:12:11.914Z,-1.26
2018-03-06T04:14:39.641Z,-1.18
2018-03-06T04:17:07.141Z,-1.29
2018-03-06T04:19:34.605Z,-1.28
2018-03-06T04:22:02.091Z,-1.28
2018-03-06T04:24:29.565Z,-1.26
2018-03-06T04:26:57.048Z,-1.42
2018-03-06T04:29:24.513Z,-1.40
2018-03-06T04:31:51.982Z,-1.46
2018-03-06T04:34:19.462Z,-1.60
2018-03-06T04:36:46.933Z,-1.47
2018-03-06T04:39:14.756Z,-1.39
2018-03-06T04:41:42.213Z,-1.54
2018-03-06T04:44:09.673Z,-1.58
2018-03-06T04:46:37.161Z,-1.52
2018-03-06T04:49:04.617Z,-1.56
2018-03-06T04:51:32.465Z,-1.65
2018-03-06T04:53:59.930Z,-1.45
2018-03-06T04:56:27.388Z,-1.41
2018-03-06T04:58:54.873Z,-1.55
2018-03-06T05:01:22.337Z,-1.62
2018-03-06T05:03:49.830Z,-1.59
2018-03-06T05:06:17.325Z,-1.54
2018-03-06T05:08:44.792Z,-1.56
2018-03-06T05:11:12.304Z,-1.66
2018-03-06T05:13:39.810Z,-1.72
2018-03-06T05:16:07.477Z,-1.79
2018-03-06T05:18:34.950Z,-1.84
2018-03-06T05:21:02.414Z,-1.96
2018-03-06T05:23:29.916Z,-1.86
2018-03-06T05:25:57.382Z,-1.89
2018-03-06T05:28:24.905Z,-1.81
2018-03-06T05:30:52.373Z,-1.79
2018-03-06T05:33:20.874Z,-1.89
2018-03-06T05:35:48.357Z,-1.80
2018-03-06T05:38:15.839Z,-1.79
2018-03-06T05:40:43.697Z,-1.85
2018-03-06T05:43:11.163Z,-1.90
2018-03-06T05:45:38.646Z,-1.71
2018-03-06T05:48:06.153Z,-1.70
2018-03-06T05:50:33.614Z,-1.68
2018-03-06T05:53:01.517Z,-1.64
2018-03-06T05:55:28.981Z,-1.65
2018-03-06T05:57:56.460Z,-1.64
2018-03-06T06:00:23.946Z,-1.72
2018-03-06T06:02:51.429Z,-1.71
2018-03-06T06:05:18.917Z,-1.66
2018-03-06T06:07:46.407Z,-1.56
2018-03-06T06:10:13.877Z,-1.61
2018-03-06T06:12:41.377Z,-1.61
2018-03-06T06:15:08.833Z,-1.55
2018-03-06T06:17:36.512Z,-1.47
2018-03-06T06:20:03.957Z,-1.45
2018-03-06T06:22:31.501Z,-1.49
2018-03-06T06:24:58.985Z,-1.47
2018-03-06T06:27:26.430Z,-1.36
2018-03-06T06:29:53.900Z,-1.29
2018-03-06T06:32:21.357Z,-1.23
2018-03-06T06:34:48.805Z,-1.16
2018-03-06T06:37:16.279Z,-1.13
2018-03-06T06:39:43.744Z,-1.05
2018-03-06T06:42:11.605Z,-0.96
2018-03-06T06:44:39.064Z,-0.92
2018-03-06T06:47:06.509Z,-0.85
2018-03-06T06:49:33.988Z,-0.81
2018-03-06T06:52:01.481Z,-0.72
2018-03-06T06:54:29.153Z,-0.64
2018-03-06T06:56:56.597Z,-0.50
2018-03-06T06:59:24.047Z,-0.41
2018-03-06T07:01:51.518Z,-0.30
2018-03-06T07:04:18.964Z,-0.11
2018-03-06T07:06:46.449Z,0.07
2018-03-06T07:09:13.954Z,0.21
2018-03-06T07:11:41.421Z,0.46
2018-03-06T07:14:08.890Z,0.54
2018-03-06T07:16:36.334Z,0.67
2018-03-06T07:19:03.813Z,0.74
2018-03-06T07:21:31.262Z,0.83
2018-03-06T07:23:58.706Z,0.91
2018-03-06T07:26:26.177Z,1.06
2018-03-06T07:28:53.625Z,1.21
2018-03-06T07:31:21.100Z,1.36
2018-03-06T07:33:48.565Z,1.60
2018-03-06T07:36:16.062Z,1.73
2018-03-06T07:38:43.517Z,1.93
2018-03-06T07:41:10.957Z,2.02
2018-03-06T07:43:38.461Z,2.24
2018-03-06T07:46:05.913Z,2.38
2018-03-06T07:48:33.354Z,2.58
2018-03-06T07:51:00.833Z,2.75
2018-03-06T07:53:28.278Z,2.61
2018-03-06T07:55:55.769Z,2.66
2018-03-06T07:58:23.249Z,2.70
2018-03-06T08:00:50.718Z,2.91
2018-03-06T08:03:18.194Z,2.96
2018-03-06T08:05:45.645Z,2.99
2018-03-06T08:08:13.213Z,3.09
2018-03-06T08:10:40.653Z,3.11
2018-03-06T08:13:08.101Z,3.14
2018-03-06T08:15:35.580Z,3.18
2018-03-06T08:18:03.021Z,3.33
2018-03-06T08:20:30.597Z,3.34
2018-03-06T08:22:58.046Z,3.25
2018-03-06T08:25:25.497Z,3.28
2018-03-06T08:27:52.962Z,3.34
2018-03-06T08:30:20.439Z,3.36
2018-03-06T08:32:47.918Z,3.73
2018-03-06T08:35:15.374Z,3.72
2018-03-06T08:37:42.849Z,3.80
2018-03-06T08:40:10.315Z,3.81
2018-03-06T08:42:37.764Z,3.86
2018-03-06T08:45:05.409Z,3.88
2018-03-06T08:47:32.853Z,4.09
2018-03-06T08:50:00.315Z,3.92
2018-03-06T08:52:27.777Z,4.16
2018-03-06T08:54:55.222Z,4.18
2018-03-06T08:57:22.854Z,4.01
2018-03-06T08:59:50.319Z,4.09
2018-03-06T09:02:17.768Z,4.19
2018-03-06T09:04:45.264Z,4.26
2018-03-06T09:07:12.721Z,4.18
2018-03-06T09:09:40.458Z,4.46
2018-03-06T09:12:07.943Z,4.61
2018-03-06T09:14:35.384Z,4.49
2018-03-06T09:17:02.845Z,4.68
2018-03-06T09:19:30.309Z,4.84
2018-03-06T09:21:57.797Z,4.82
2018-03-06T09:24:25.250Z,4.75
2018-03-06T09:26:52.716Z,5.09
2018-03-06T09:29:20.205Z,5.16
2018-03-06T09:31:47.655Z,5.10
2018-03-06T09:34:15.297Z,5.04
2018-03-06T09:36:42.778Z,5.01
2018-03-06T09:39:10.236Z,5.23
2018-03-06T09:41:37.701Z,5.15
2018-03-06T09:44:05.149Z,5.20
2018-03-06T09:46:32.763Z,5.23
2018-03-06T09:49:00.212Z,5.45
2018-03-06T09:51:27.653Z,5.47
2018-03-06T09:53:56.085Z,5.64
2018-03-06T09:56:23.541Z,5.70
2018-03-06T09:58:51.033Z,5.82
2018-03-06T10:01:18.472Z,5.80
2018-03-06T10:03:45.929Z,5.89
2018-03-06T10:06:13.389Z,5.91
2018-03-06T10:08:40.830Z,5.90
2018-03-06T10:11:08.329Z,6.18
2018-03-06T10:13:35.796Z,6.07
2018-03-06T10:16:03.233Z,6.14
2018-03-06T10:18:30.697Z,6.28
2018-03-06T10:20:58.132Z,6.22
2018-03-06T10:23:25.669Z,6.06
2018-03-06T10:25:53.117Z,6.38
2018-03-06T10:28:20.581Z,6.38
2018-03-06T10:30:48.049Z,6.39
2018-03-06T10:33:15.500Z,6.61
2018-03-06T10:35:43.089Z,6.61
2018-03-06T10:38:10.529Z,6.74
2018-03-06T10:40:37.969Z,6.69
2018-03-06T10:43:05.442Z,6.79
2018-03-06T10:45:32.890Z,6.67
2018-03-06T10:48:00.519Z,6.73
2018-03-06T10:50:27.970Z,6.90
2018-03-06T10:52:55.409Z,6.91
2018-03-06T10:55:22.873Z,6.86
2018-03-06T10:57:50.335Z,7.01
2018-03-06T11:00:23.697Z,7.25
2018-03-06T11:02:53.081Z,7.24
2018-03-06T11:05:20.541Z,7.55
2018-03-06T11:07:48.002Z,7.13
2018-03-06T11:10:15.444Z,6.97
2018-03-06T11:12:43.090Z,7.04
2018-03-06T11:15:10.545Z,7.12
2018-03-06T11:17:38.005Z,7.37
2018-03-06T11:20:05.470Z,7.67
2018-03-06T11:22:32.921Z,7.77
2018-03-06T11:25:00.664Z,7.83
2018-03-06T11:27:28.104Z,7.94
2018-03-06T11:29:55.557Z,8.22
2018-03-06T11:32:23.017Z,8.37
2018-03-06T11:34:50.482Z,8.49
2018-03-06T11:37:17.957Z,8.41
2018-03-06T11:39:45.413Z,8.42
2018-03-06T11:42:13.047Z,8.24
2018-03-06T11:44:40.497Z,8.31
2018-03-06T11:47:07.949Z,8.53
2018-03-06T11:49:35.437Z,8.59
2018-03-06T11:52:02.893Z,8.63
2018-03-06T11:54:30.610Z,8.69
2018-03-06T11:56:58.100Z,8.88
2018-03-06T11:59:25.583Z,8.71
2018-03-06T12:01:53.035Z,8.91
2018-03-06T12:04:20.494Z,8.92
2018-03-06T12:06:48.061Z,8.90
2018-03-06T12:09:15.509Z,9.28
2018-03-06T12:11:42.978Z,9.89
2018-03-06T12:14:10.442Z,9.42
2018-03-06T12:16:37.907Z,9.40
2018-03-06T12:19:05.613Z,9.83
2018-03-06T12:21:33.066Z,9.96
2018-03-06T12:24:00.505Z,9.82
2018-03-06T12:26:27.981Z,9.61
2018-03-06T12:28:55.440Z,10.00
2018-03-06T12:31:22.937Z,10.13
2018-03-06T12:33:50.390Z,10.19
2018-03-06T12:36:17.847Z,10.24
2018-03-06T12:38:45.321Z,10.32
2018-03-06T12:41:12.774Z,10.06
2018-03-06T12:43:40.389Z,10.09
2018-03-06T12:46:07.842Z,10.31
2018-03-06T12:48:35.293Z,10.41
2018-03-06T12:51:02.770Z,10.33
2018-03-06T12:53:30.221Z,10.15
2018-03-06T12:55:57.781Z,10.24
2018-03-06T12:58:25.237Z,10.54
2018-03-06T13:00:52.694Z,10.65
2018-03-06T13:03:20.159Z,10.81
2018-03-06T13:05:47.609Z,10.64
2018-03-06T13:08:15.285Z,10.36
2018-03-06T13:10:42.740Z,10.75
2018-03-06T13:13:10.201Z,10.77
2018-03-06T13:15:37.667Z,10.58
2018-03-06T13:18:05.121Z,10.72
2018-03-06T13:20:32.841Z,10.89
2018-03-06T13:23:00.289Z,10.50
2018-03-06T13:25:27.753Z,10.55
2018-03-06T13:27:55.221Z,10.47
2018-03-06T13:30:22.715Z,10.35
2018-03-06T13:32:50.489Z,10.43
2018-03-06T13:35:17.945Z,10.43
2018-03-06T13:37:45.480Z,10.38
2018-03-06T13:40:12.953Z,10.64
2018-03-06T13:42:40.402Z,10.74
2018-03-06T13:45:07.911Z,10.83
2018-03-06T13:47:35.361Z,10.87
2018-03-06T13:50:02.816Z,10.96
2018-03-06T13:52:30.285Z,10.96
2018-03-06T13:54:57.736Z,11.11
2018-03-06T13:57:25.237Z,11.33
2018-03-06T13:59:52.685Z,11.38
2018-03-06T14:02:20.133Z,11.19
2018-03-06T14:04:47.602Z,11.43
2018-03-06T14:07:15.056Z,11.10
2018-03-06T14:09:42.749Z,11.24
2018-03-06T14:12:10.206Z,11.42
2018-03-06T14:14:37.665Z,11.37
2018-03-06T14:17:05.142Z,11.56
2018-03-06T14:19:32.585Z,11.67
2018-03-06T14:22:00.253Z,11.48
2018-03-06T14:24:27.710Z,11.57
2018-03-06T14:26:55.185Z,11.60
2018-03-06T14:29:22.673Z,11.58
2018-03-06T14:31:50.121Z,11.48
2018-03-06T14:34:17.609Z,11.46
2018-03-06T14:36:45.137Z,11.58
2018-03-06T14:39:12.586Z,11.56
2018-03-06T14:41:40.054Z,11.30
2018-03-06T14:44:07.523Z,11.24
2018-03-06T14:46:35.193Z,11.48
2018-03-06T14:49:02.649Z,11.66
2018-03-06T14:51:30.131Z,11.53
2018-03-06T14:53:57.605Z,11.42
2018-03-06T14:56:25.069Z,11.55
2018-03-06T14:58:52.554Z,11.57
2018-03-06T15:01:20.022Z,11.65
2018-03-06T15:03:47.469Z,11.55
2018-03-06T15:06:14.989Z,11.69
2018-03-06T15:08:42.489Z,11.77
2018-03-06T15:11:09.960Z,11.64
2018-03-06T15:13:37.410Z,11.82
2018-03-06T15:16:04.869Z,11.61
2018-03-06T15:18:32.342Z,11.69
2018-03-06T15:20:59.810Z,11.92
2018-03-06T15:23:27.301Z,11.67
2018-03-06T15:25:54.749Z,11.52
2018-03-06T15:28:22.202Z,11.62
2018-03-06T15:30:49.674Z,11.61
2018-03-06T15:33:17.149Z,11.69
2018-03-06T15:35:44.630Z,11.77
2018-03-06T15:38:12.113Z,11.76
2018-03-06T15:40:39.562Z,11.89
2018-03-06T15:43:07.057Z,11.70
2018-03-06T15:45:34.501Z,11.85
2018-03-06T15:48:01.987Z,11.75
2018-03-06T15:50:29.453Z,11.65
2018-03-06T15:52:56.914Z,11.65
2018-03-06T15:55:24.395Z,11.66
2018-03-06T15:57:51.845Z,11.81
2018-03-06T16:00:19.490Z,11.80
2018-03-06T16:02:46.946Z,11.73
2018-03-06T16:05:14.421Z,11.69
2018-03-06T16:07:41.917Z,11.70
2018-03-06T16:10:09.369Z,11.66
2018-03-06T16:12:36.873Z,11.72
2018-03-06T16:15:04.334Z,11.70
2018-03-06T16:17:31.786Z,11.69
2018-03-06T16:19:59.277Z,11.68
2018-03-06T16:22:26.727Z,11.52
2018-03-06T16:24:54.201Z,11.42
2018-03-06T16:27:21.673Z,11.41
2018-03-06T16:29:49.125Z,11.38
2018-03-06T16:32:16.592Z,11.45
2018-03-06T16:34:44.049Z,11.21
2018-03-06T16:37:11.638Z,11.09
2018-03-06T16:39:39.089Z,11.06
2018-03-06T16:42:06.547Z,10.86
2018-03-06T16:44:34.022Z,10.64
2018-03-06T16:47:01.478Z,10.54
2018-03-06T16:49:31.244Z,10.50
2018-03-06T16:51:58.695Z,10.34
2018-03-06T16:54:26.165Z,10.47
2018-03-06T16:56:53.637Z,10.38
2018-03-06T16:59:21.106Z,10.21
2018-03-06T17:01:48.789Z,10.20
2018-03-06T17:04:16.234Z,10.13
2018-03-06T17:06:43.701Z,10.09
2018-03-06T17:09:11.173Z,10.14
2018-03-06T17:11:38.709Z,10.10
2018-03-06T17:14:06.349Z,9.86
2018-03-06T17:16:33.869Z,9.80
2018-03-06T17:19:01.326Z,9.90
2018-03-06T17:21:28.789Z,9.72
2018-03-06T17:23:56.237Z,9.63
2018-03-06T17:26:23.853Z,9.65
2018-03-06T17:28:51.305Z,9.55
2018-03-06T17:31:18.765Z,9.53
2018-03-06T17:33:46.242Z,9.43
2018-03-06T17:36:13.686Z,9.27
2018-03-06T17:38:41.165Z,9.19
2018-03-06T17:41:08.705Z,9.12
2018-03-06T17:43:36.151Z,9.10
2018-03-06T17:46:03.614Z,8.94
2018-03-06T17:48:31.085Z,8.92
2018-03-06T17:50:59.017Z,8.88
2018-03-06T17:53:26.468Z,8.82
2018-03-06T17:55:53.930Z,8.86
2018-03-06T17:58:21.421Z,8.76
2018-03-06T18:00:48.861Z,8.64
2018-03-06T18:03:16.366Z,8.59
2018-03-06T18:05:43.810Z,8.48
2018-03-06T18:08:11.266Z,8.34
2018-03-06T18:10:38.730Z,8.28
2018-03-06T18:13:06.197Z,8.29
2018-03-06T18:15:33.698Z,8.21
2018-03-06T18:18:01.152Z,8.14
2018-03-06T18:20:28.612Z,7.96
2018-03-06T18:22:56.104Z,8.18
2018-03-06T18:25:23.935Z,7.96
2018-03-06T18:27:51.757Z,7.97
2018-03-06T18:30:19.233Z,7.81
2018-03-06T18:32:46.690Z,7.69
2018-03-06T18:35:14.190Z,7.61
2018-03-06T18:37:41.633Z,7.53
2018-03-06T18:40:09.314Z,7.50
2018-03-06T18:42:36.777Z,7.30
2018-03-06T18:45:04.266Z,7.13
2018-03-06T18:47:31.729Z,7.08
2018-03-06T18:50:01.911Z,6.91
2018-03-06T18:52:29.410Z,6.86
2018-03-06T18:54:56.858Z,7.07
2018-03-06T18:57:24.317Z,7.16
2018-03-06T19:03:06.575Z,6.98
2018-03-06T19:05:45.959Z,7.00
2018-03-06T19:08:13.409Z,7.07
2018-03-06T19:10:41.211Z,7.01
2018-03-06T19:13:08.656Z,7.23
2018-03-06T19:15:36.119Z,7.11
2018-03-06T19:18:03.630Z,7.24
2018-03-06T19:20:31.069Z,7.27
2018-03-06T19:22:58.514Z,7.25
2018-03-06T19:25:25.986Z,7.36
2018-03-06T19:27:53.433Z,7.10
2018-03-06T19:30:20.937Z,7.11
2018-03-06T19:32:48.383Z,7.23
2018-03-06T19:35:15.830Z,7.23
2018-03-06T19:37:43.301Z,7.27
2018-03-06T19:40:10.773Z,7.22
2018-03-06T19:42:38.285Z,7.31
2018-03-06T19:45:05.738Z,7.40
2018-03-06T19:47:33.553Z,7.36
2018-03-06T19:50:00.999Z,7.41
2018-03-06T19:52:28.499Z,7.30
2018-03-06T19:54:55.974Z,7.34
2018-03-06T19:57:23.419Z,7.46
2018-03-06T19:59:51.223Z,7.55
2018-03-06T20:02:18.669Z,7.54
2018-03-06T20:04:46.141Z,7.60
2018-03-06T20:07:13.613Z,7.56
2018-03-06T20:09:41.058Z,7.62
2018-03-06T20:12:08.796Z,7.63
2018-03-06T20:14:41.769Z,7.83
2018-03-06T20:17:09.274Z,7.68
2018-03-06T20:19:40.622Z,7.66
2018-03-06T20:22:08.818Z,7.69
2018-03-06T20:24:41.822Z,7.84
2018-03-06T20:27:09.296Z,7.85
2018-03-06T20:29:36.762Z,8.03
2018-03-06T20:32:09.773Z,7.98
2018-03-06T20:34:37.249Z,7.95
2018-03-06T20:37:04.710Z,7.96
2018-03-06T20:39:37.710Z,7.94
2018-03-06T20:42:06.404Z,7.86
2018-03-06T20:44:33.874Z,7.73
2018-03-06T20:47:06.938Z,7.65
2018-03-06T20:49:34.412Z,7.66
2018-03-06T20:52:01.853Z,7.63
2018-03-06T20:57:28.385Z,7.60
2018-03-06T20:59:55.861Z,7.56
2018-03-06T21:02:23.318Z,7.56
2018-03-06T21:04:50.766Z,7.60
2018-03-06T21:07:18.229Z,7.73
2018-03-06T21:09:45.674Z,7.84
2018-03-06T21:12:13.281Z,7.69
2018-03-06T21:14:40.724Z,7.62
2018-03-06T21:17:08.169Z,7.71
2018-03-06T21:19:35.649Z,7.69
2018-03-06T21:22:03.092Z,7.61
2018-03-06T21:24:30.825Z,7.50
2018-03-06T21:26:58.273Z,7.51
2018-03-06T21:29:25.720Z,7.42
2018-03-06T21:31:53.198Z,7.44
2018-03-06T21:34:20.661Z,7.41
2018-03-06T21:36:48.142Z,7.31
2018-03-06T21:39:15.598Z,7.37
2018-03-06T21:41:43.048Z,7.38
2018-03-06T21:44:10.513Z,7.38
2018-03-06T21:46:37.959Z,7.71
2018-03-06T21:49:05.732Z,7.64
2018-03-06T21:51:33.201Z,7.59
2018-03-06T21:54:00.662Z,7.49
2018-03-06T21:56:28.146Z,7.44
2018-03-06T21:58:55.664Z,7.45
2018-03-06T22:01:23.105Z,7.42
2018-03-06T22:03:50.598Z,7.47
2018-03-06T22:06:18.057Z,7.26
2018-03-06T22:08:45.517Z,7.29
2018-03-06T22:11:13.170Z,7.33
2018-03-06T22:13:40.621Z,7.29
2018-03-06T22:16:08.075Z,7.22
2018-03-06T22:18:35.608Z,7.22
2018-03-06T22:21:03.035Z,7.27
2018-03-06T22:23:30.481Z,7.31
2018-03-06T22:25:57.944Z,7.16
2018-03-06T22:28:25.385Z,7.22
2018-03-06T22:30:52.874Z,7.24
2018-03-06T22:33:20.319Z,7.27
2018-03-06T22:35:47.769Z,7.14
2018-03-06T22:38:15.249Z,7.19
2018-03-06T22:40:42.689Z,7.13
2018-03-06T22:43:10.154Z,7.14
2018-03-06T22:45:37.597Z,7.15
2018-03-06T22:48:05.225Z,7.11
2018-03-06T22:50:32.674Z,7.12
2018-03-06T22:53:00.137Z,7.10
2018-03-06T22:55:27.605Z,7.11
2018-03-06T22:57:55.046Z,7.08
2018-03-06T23:00:22.517Z,7.05
2018-03-06T23:02:50.004Z,7.07
2018-03-06T23:05:17.423Z,7.12
2018-03-06T23:07:44.889Z,7.07
2018-03-06T23:10:12.365Z,7.00
2018-03-06T23:12:40.030Z,7.05
2018-03-06T23:15:07.481Z,6.91
2018-03-06T23:17:34.950Z,6.98
2018-03-06T23:20:02.435Z,6.54
2018-03-06T23:22:29.877Z,6.49
2018-03-06T23:24:57.574Z,6.26
2018-03-06T23:27:25.062Z,6.15
2018-03-06T23:29:52.505Z,6.01
2018-03-06T23:32:19.969Z,6.03
2018-03-06T23:34:47.453Z,5.96
2018-03-06T23:37:14.936Z,5.82
2018-03-06T23:39:42.393Z,5.82
2018-03-06T23:42:09.849Z,5.70
2018-03-06T23:44:37.332Z,5.43
2018-03-06T23:47:04.780Z,5.51
2018-03-06T23:49:32.262Z,5.27
2018-03-06T23:51:59.701Z,5.23
2018-03-06T23:54:27.165Z,5.20
2018-03-06T23:56:54.629Z,5.06
2018-03-06T23:59:22.074Z,4.90
